Whale Watcher II — WDB8211 — position and weather

sailwx.info

Track history (hours):
 
Tides and Currents Weather Stations Pressure Air Temp Water Temp Dewpoint Dewpoint Depression Visibility Wind Speed Wind Dir Waves Ship Positions

Whale Watcher II

More information available from US FCC via Universal Licensing System and Coast Guard Vessel Documentation Center.

Last reported at 2014-Jul-12 13:32 UTC. Time now 2014-Jul-23 08:05 UTC.
Position N 29°55' W 090°04'.
Warning: this ship's position is 10 days out of date.

Length 22 m.

Type: Towing. MMSI: 367011790.

Date/timePositionNaut miles runAvg speedWind from/ knotsBaromVisibWave heightAir tempDewpointWater temp
2014-Jul-12 13:32N 29°55' W 090°04'0 0.0
2014-Jul-12 12:25N 29°55' W 090°04'0 0.0
2014-Jul-12 11:17N 29°55' W 090°04'0 0.0
2014-Jul-12 10:22N 29°55' W 090°04'  
2014-Jul-10 03:33N 29°55' W 090°04'0 0.0
2014-Jul-10 02:33N 29°55' W 090°04'0 0.0
2014-Jul-10 00:33N 29°55' W 090°04'  
2014-Jul-06 13:15N 29°58' W 090°16'4 5.3
2014-Jul-06 12:33N 29°56' W 090°13'4 4.1
2014-Jul-06 11:33N 29°55' W 090°08'4 4.0
2014-Jul-06 10:33N 29°55' W 090°04'0 0.0
2014-Jul-06 09:33N 29°55' W 090°04'  
2014-Jul-03 09:27N 29°58' W 090°16'0 0.0
2014-Jul-03 08:34N 29°58' W 090°16'4 0.8
2014-Jul-03 04:05N 29°56' W 090°20'  
Track history (hours):
 
Tides and Currents Weather Stations Pressure Air Temp Water Temp Dewpoint Dewpoint Depression Visibility Wind Speed Wind Dir Waves Ship Positions

Whale Watcher II

More information available from US FCC via Universal Licensing System and Coast Guard Vessel Documentation Center.

Last reported at 2014-Jul-12 13:32 UTC. Time now 2014-Jul-23 08:05 UTC.
Position N 29°55' W 090°04'.
Warning: this ship's position is 10 days out of date.

Length 22 m.

Type: Towing. MMSI: 367011790.

Date/timePositionNaut miles runAvg speedWind from/ knotsBaromVisibWave heightAir tempDewpointWater temp
2014-Jul-12 13:32N 29°55' W 090°04'0 0.0
2014-Jul-12 12:25N 29°55' W 090°04'0 0.0
2014-Jul-12 11:17N 29°55' W 090°04'0 0.0
2014-Jul-12 10:22N 29°55' W 090°04'  
2014-Jul-10 03:33N 29°55' W 090°04'0 0.0
2014-Jul-10 02:33N 29°55' W 090°04'0 0.0
2014-Jul-10 00:33N 29°55' W 090°04'  
2014-Jul-06 13:15N 29°58' W 090°16'4 5.3
2014-Jul-06 12:33N 29°56' W 090°13'4 4.1
2014-Jul-06 11:33N 29°55' W 090°08'4 4.0
2014-Jul-06 10:33N 29°55' W 090°04'0 0.0
2014-Jul-06 09:33N 29°55' W 090°04'  
2014-Jul-03 09:27N 29°58' W 090°16'0 0.0
2014-Jul-03 08:34N 29°58' W 090°16'4 0.8
2014-Jul-03 04:05N 29°56' W 090°20'  

Dump ship's entire track history